Terminal Aerodrome Forecast
Issued by NWS

Home | Current Version | Previous Version | Text Only | Print | Product List | Glossary On
Versions: 1 2 3 4 5 6 7 8 9 10 11 12 13 14 15
000
FTUS43 KICT 241100
TAFHUT
TAF
KHUT 241138Z 2412/2512 35017KT P6SM VCSH OVC011
      TEMPO 2412/2414 SCT010 OVC050
     FM241400 33022G30KT P6SM BKN080
     FM242000 33017G25KT P6SM SKC=

USA.gov is the U.S. government's official web portal to all federal, state and local government web resources and services.